Time;durP1;ratioP1;P1;durP2;ratioP2;P2;SDS_P1;SDS_P2;PMS_P1;PMS_P2;Temp;Humidity;BMP_temperature;BMP_pressure;BME280_temperature;BME280_humidity;BME280_pressure;Samples;Min_cycle;Max_cycle;Signal;HPM_P1;HPM_P2
2023/07/03 00:00:12;;;;;;;;;;;17.70;99.90;;;;;;5021967;28;20744;-78
2023/07/03 00:02:42;;;;;;;;;;;17.60;99.90;;;;;;5020779;28;20362;-78
2023/07/03 00:05:08;;;;;;;;;;;17.60;99.90;;;;;;5035801;28;20369;-78
2023/07/03 00:07:37;;;;;;;;;;;17.60;99.90;;;;;;5017470;28;19991;-77
2023/07/03 00:10:08;;;;;;;;;;;17.60;99.90;;;;;;5020811;28;20428;-77
2023/07/03 00:12:39;;;;;;;;;;;17.60;99.90;;;;;;5021510;28;19992;-77
2023/07/03 00:15:05;;;;;;;;;;;17.60;99.90;;;;;;4996564;28;19919;-76
2023/07/03 00:17:37;;;;;;;;;;;17.50;99.90;;;;;;5021670;28;20013;-77
2023/07/03 00:20:04;;;;;;;;;;;17.50;99.90;;;;;;5035424;28;19917;-77
2023/07/03 00:22:38;;;;;;;;;;;17.50;99.90;;;;;;5021276;28;19924;-78
2023/07/03 00:25:06;;;;;;;;;;;17.50;99.90;;;;;;5020919;28;19909;-77
2023/07/03 00:27:35;;;;;;;;;;;17.40;99.90;;;;;;5021701;28;19917;-76
2023/07/03 00:30:02;;;;;;;;;;;17.40;99.90;;;;;;4995633;28;19913;-76
2023/07/03 00:32:28;;;;;;;;;;;17.30;99.90;;;;;;5019962;28;19920;-78
2023/07/03 00:34:58;;;;;;;;;;;17.30;99.90;;;;;;4999902;28;19917;-77
2023/07/03 00:37:23;;;;;;;;;;;17.30;99.90;;;;;;5021927;28;20281;-76
2023/07/03 00:39:52;;;;;;;;;;;17.30;99.90;;;;;;5021072;28;19917;-77
2023/07/03 00:42:28;;;;;;;;;;;17.20;99.90;;;;;;5024184;28;19913;-77
2023/07/03 00:44:56;;;;;;;;;;;17.20;99.90;;;;;;5011493;28;19917;-77
2023/07/03 00:47:25;;;;;;;;;;;17.20;99.90;;;;;;5004471;28;19959;-77
2023/07/03 00:49:59;;;;;;;;;;;17.20;99.90;;;;;;5004726;28;19920;-77
2023/07/03 00:52:35;;;;;;;;;;;17.20;99.90;;;;;;5024022;28;20073;-76
2023/07/03 00:55:08;;;;;;;;;;;17.20;99.90;;;;;;5000696;28;20018;-77
2023/07/03 00:57:34;;;;;;;;;;;17.20;99.90;;;;;;5001959;28;19986;-78
2023/07/03 01:00:06;;;;;;;;;;;17.20;99.90;;;;;;5022981;28;19913;-77
2023/07/03 01:02:42;;;;;;;;;;;17.10;99.90;;;;;;4998456;28;19933;-77
2023/07/03 01:05:22;;;;;;;;;;;17.10;99.90;;;;;;5021197;28;19909;-78
2023/07/03 01:07:51;;;;;;;;;;;17.10;99.90;;;;;;5020190;28;19932;-77
2023/07/03 01:10:22;;;;;;;;;;;17.10;99.90;;;;;;4997823;28;20015;-77
2023/07/03 01:12:50;;;;;;;;;;;17.00;99.90;;;;;;4998375;28;19943;-77
2023/07/03 01:15:21;;;;;;;;;;;17.00;99.90;;;;;;5020910;28;19909;-79
2023/07/03 01:17:50;;;;;;;;;;;16.90;99.90;;;;;;5017354;28;20060;-76
2023/07/03 01:20:18;;;;;;;;;;;17.00;99.90;;;;;;5002218;28;19929;-77
2023/07/03 01:23:06;;;;;;;;;;;16.90;99.90;;;;;;4983435;28;19923;-78
2023/07/03 01:25:34;;;;;;;;;;;16.90;99.90;;;;;;5018295;28;20384;-77
2023/07/03 01:28:06;;;;;;;;;;;16.90;99.90;;;;;;5036032;28;19940;-77
2023/07/03 01:30:32;;;;;;;;;;;16.80;99.90;;;;;;5035290;28;20043;-78
2023/07/03 01:33:01;;;;;;;;;;;16.90;99.90;;;;;;5035437;28;19913;-77
2023/07/03 01:35:27;;;;;;;;;;;16.80;99.90;;;;;;5018852;28;19913;-78
2023/07/03 01:37:54;;;;;;;;;;;16.70;99.90;;;;;;4999357;28;19913;-78
2023/07/03 01:40:24;;;;;;;;;;;16.70;99.90;;;;;;5002414;28;19927;-77
2023/07/03 01:42:54;;;;;;;;;;;16.60;99.90;;;;;;5019397;28;19917;-77
2023/07/03 01:45:23;;;;;;;;;;;16.60;99.90;;;;;;5022392;28;20836;-78
2023/07/03 01:47:48;;;;;;;;;;;16.50;99.90;;;;;;5005254;28;20008;-78
2023/07/03 01:50:20;;;;;;;;;;;16.40;99.90;;;;;;5021915;28;20020;-78
2023/07/03 01:52:54;;;;;;;;;;;16.50;99.90;;;;;;5023069;28;19960;-78
2023/07/03 01:55:42;;;;;;;;;;;16.40;99.90;;;;;;5020390;28;19997;-78
2023/07/03 01:58:29;;;;;;;;;;;16.50;99.90;;;;;;5038281;28;20257;-77
2023/07/03 02:01:06;;;;;;;;;;;16.50;99.90;;;;;;5036983;28;19956;-77
2023/07/03 02:03:40;;;;;;;;;;;16.50;99.90;;;;;;5038928;28;19913;-78
2023/07/03 02:06:11;;;;;;;;;;;16.50;99.90;;;;;;5022534;28;20462;-77
2023/07/03 02:08:39;;;;;;;;;;;16.40;99.90;;;;;;5023456;28;20004;-77
2023/07/03 02:11:14;;;;;;;;;;;16.40;99.90;;;;;;4998963;28;19913;-77
2023/07/03 02:13:39;;;;;;;;;;;16.40;99.90;;;;;;5000932;28;19918;-78
2023/07/03 02:16:05;;;;;;;;;;;16.40;99.90;;;;;;5001394;28;19923;-77
2023/07/03 02:18:35;;;;;;;;;;;16.40;99.90;;;;;;5005915;28;19955;-77
2023/07/03 02:21:05;;;;;;;;;;;16.40;99.90;;;;;;5037656;28;19913;-77
2023/07/03 02:23:31;;;;;;;;;;;16.40;99.90;;;;;;5005717;28;20443;-76
2023/07/03 02:25:57;;;;;;;;;;;16.30;99.90;;;;;;5037208;28;19928;-77
2023/07/03 02:28:25;;;;;;;;;;;16.30;99.90;;;;;;5000004;28;19913;-78
2023/07/03 02:30:53;;;;;;;;;;;16.30;99.90;;;;;;5021982;28;20012;-77
2023/07/03 02:33:18;;;;;;;;;;;16.30;99.90;;;;;;4999864;28;20304;-76
2023/07/03 02:35:47;;;;;;;;;;;16.20;99.90;;;;;;5038343;28;19917;-77
2023/07/03 02:38:15;;;;;;;;;;;16.20;99.90;;;;;;5022126;28;20392;-76
2023/07/03 02:40:41;;;;;;;;;;;16.20;99.90;;;;;;5017208;28;19914;-76
2023/07/03 02:43:10;;;;;;;;;;;16.20;99.90;;;;;;4999284;28;19979;-76
2023/07/03 02:45:38;;;;;;;;;;;16.20;99.90;;;;;;5004742;28;19914;-76
2023/07/03 02:48:05;;;;;;;;;;;16.20;99.90;;;;;;4999383;28;20285;-77
2023/07/03 02:50:31;;;;;;;;;;;16.20;99.90;;;;;;5022045;28;19921;-78
2023/07/03 02:52:58;;;;;;;;;;;16.20;99.90;;;;;;5036146;28;20855;-78
2023/07/03 02:55:27;;;;;;;;;;;16.20;99.90;;;;;;4999193;28;19969;-77
2023/07/03 02:57:54;;;;;;;;;;;16.20;99.90;;;;;;5021662;28;20389;-78
2023/07/03 03:00:25;;;;;;;;;;;16.20;99.90;;;;;;5001735;28;20020;-78
2023/07/03 03:02:50;;;;;;;;;;;16.20;99.90;;;;;;5016922;28;19984;-78
2023/07/03 03:05:16;;;;;;;;;;;16.30;99.90;;;;;;5020774;28;19916;-78
2023/07/03 03:07:41;;;;;;;;;;;16.20;99.90;;;;;;5020926;28;19924;-78
2023/07/03 03:10:07;;;;;;;;;;;16.20;99.90;;;;;;4999969;28;20060;-78
2023/07/03 03:12:32;;;;;;;;;;;16.30;99.90;;;;;;5000655;28;19956;-79
2023/07/03 03:14:59;;;;;;;;;;;16.20;99.90;;;;;;5037388;28;20063;-78
2023/07/03 03:17:28;;;;;;;;;;;16.30;99.90;;;;;;4998739;28;20420;-78
2023/07/03 03:19:56;;;;;;;;;;;16.30;99.90;;;;;;5037312;28;20380;-78
2023/07/03 03:22:25;;;;;;;;;;;16.30;99.90;;;;;;5005570;28;19909;-78
2023/07/03 03:24:51;;;;;;;;;;;16.30;99.90;;;;;;5001284;28;20019;-78
2023/07/03 03:27:16;;;;;;;;;;;16.20;99.90;;;;;;4999569;28;19964;-77
2023/07/03 03:29:42;;;;;;;;;;;16.20;99.90;;;;;;5002309;28;19967;-78
2023/07/03 03:32:08;;;;;;;;;;;16.10;99.90;;;;;;5020399;28;20012;-77
2023/07/03 03:34:34;;;;;;;;;;;16.00;99.90;;;;;;5022496;28;20467;-77
2023/07/03 03:37:00;;;;;;;;;;;15.80;99.90;;;;;;5022249;28;19913;-78
2023/07/03 03:39:25;;;;;;;;;;;15.80;99.90;;;;;;5038063;28;21898;-79
2023/07/03 03:41:52;;;;;;;;;;;15.80;99.90;;;;;;5021837;28;19948;-79
2023/07/03 03:44:23;;;;;;;;;;;15.90;99.90;;;;;;5003962;28;19937;-78
2023/07/03 03:46:52;;;;;;;;;;;15.90;99.90;;;;;;4999197;28;19921;-78
2023/07/03 03:49:19;;;;;;;;;;;15.90;99.90;;;;;;5000512;28;20448;-78
2023/07/03 03:51:44;;;;;;;;;;;15.90;99.90;;;;;;4998644;28;19957;-79
2023/07/03 03:54:13;;;;;;;;;;;15.90;99.90;;;;;;5020239;28;20003;-78
2023/07/03 03:56:39;;;;;;;;;;;15.90;99.90;;;;;;5000273;28;20493;-78
2023/07/03 03:59:05;;;;;;;;;;;15.90;99.90;;;;;;5035128;28;19912;-78
2023/07/03 04:01:38;;;;;;;;;;;15.90;99.90;;;;;;5034813;28;19951;-78
2023/07/03 04:04:04;;;;;;;;;;;15.90;99.90;;;;;;5019660;28;19920;-78
2023/07/03 04:06:30;;;;;;;;;;;15.90;99.90;;;;;;5035943;28;19925;-78
2023/07/03 04:08:58;;;;;;;;;;;16.00;99.90;;;;;;5020565;28;19917;-78
2023/07/03 04:11:32;;;;;;;;;;;16.00;99.90;;;;;;5022310;28;19912;-78
2023/07/03 04:14:01;;;;;;;;;;;16.00;99.90;;;;;;5021415;28;19923;-79
2023/07/03 04:16:30;;;;;;;;;;;16.00;99.90;;;;;;5000800;28;19909;-78
2023/07/03 04:18:59;;;;;;;;;;;16.00;99.90;;;;;;5019819;28;19917;-78
2023/07/03 04:21:30;;;;;;;;;;;16.00;99.90;;;;;;5004016;28;19924;-78
2023/07/03 04:23:56;;;;;;;;;;;16.00;99.90;;;;;;5021258;28;19962;-79
2023/07/03 04:26:27;;;;;;;;;;;15.90;99.90;;;;;;4998779;28;20344;-79
2023/07/03 04:28:53;;;;;;;;;;;15.90;99.90;;;;;;5022201;28;19913;-79
2023/07/03 04:31:21;;;;;;;;;;;15.90;99.90;;;;;;5037268;28;19919;-79
2023/07/03 04:33:54;;;;;;;;;;;15.80;99.90;;;;;;5036680;28;19999;-79
2023/07/03 04:36:23;;;;;;;;;;;15.80;99.90;;;;;;5018172;28;19913;-78
2023/07/03 04:38:48;;;;;;;;;;;15.80;99.90;;;;;;5003407;28;19909;-78
2023/07/03 04:41:15;;;;;;;;;;;15.80;99.90;;;;;;4998829;28;20007;-77
2023/07/03 04:43:49;;;;;;;;;;;15.90;99.90;;;;;;4999158;28;19924;-78
2023/07/03 04:46:25;;;;;;;;;;;15.90;99.90;;;;;;5019723;28;19999;-77
2023/07/03 04:49:07;;;;;;;;;;;15.90;99.90;;;;;;5034329;28;19924;-77
2023/07/03 04:51:33;;;;;;;;;;;15.90;99.90;;;;;;5019836;28;19921;-77
2023/07/03 04:54:03;;;;;;;;;;;15.90;99.90;;;;;;5019382;28;20369;-77
2023/07/03 04:56:32;;;;;;;;;;;15.90;99.90;;;;;;5020763;28;19966;-78
2023/07/03 04:59:03;;;;;;;;;;;15.90;99.90;;;;;;5019603;28;20007;-78
2023/07/03 05:01:30;;;;;;;;;;;15.90;99.90;;;;;;5020818;28;19909;-77
2023/07/03 05:03:56;;;;;;;;;;;15.90;99.90;;;;;;5020436;28;19920;-77
2023/07/03 05:06:31;;;;;;;;;;;16.00;99.90;;;;;;5000720;28;20301;-78
2023/07/03 05:09:04;;;;;;;;;;;16.00;99.90;;;;;;5020507;28;19917;-78
2023/07/03 05:11:35;;;;;;;;;;;15.90;99.90;;;;;;5020512;28;19956;-77
2023/07/03 05:14:01;;;;;;;;;;;15.90;99.90;;;;;;5003109;28;19913;-77
2023/07/03 05:16:26;;;;;;;;;;;16.00;99.90;;;;;;5005400;28;20380;-77
2023/07/03 05:18:52;;;;;;;;;;;15.90;99.90;;;;;;5001783;28;20031;-77
2023/07/03 05:21:23;;;;;;;;;;;16.00;99.90;;;;;;5024583;28;19917;-78
2023/07/03 05:23:57;;;;;;;;;;;15.90;99.90;;;;;;5023884;28;20078;-77
2023/07/03 05:26:24;;;;;;;;;;;15.90;99.90;;;;;;5025110;28;20373;-77
2023/07/03 05:28:54;;;;;;;;;;;15.90;99.90;;;;;;5023219;28;19913;-77
2023/07/03 05:31:23;;;;;;;;;;;15.90;99.90;;;;;;5005431;28;19913;-78
2023/07/03 05:33:49;;;;;;;;;;;16.00;99.90;;;;;;5006636;28;20007;-79
2023/07/03 05:36:15;;;;;;;;;;;16.00;99.90;;;;;;5021701;28;19959;-78
2023/07/03 05:38:50;;;;;;;;;;;16.10;99.90;;;;;;5006970;28;20300;-78
2023/07/03 05:41:18;;;;;;;;;;;16.10;99.90;;;;;;5022247;28;19913;-77
2023/07/03 05:43:47;;;;;;;;;;;16.10;99.90;;;;;;5002777;28;20250;-78
2023/07/03 05:46:32;;;;;;;;;;;16.10;99.90;;;;;;5021821;28;19920;-78
2023/07/03 05:49:04;;;;;;;;;;;16.20;99.90;;;;;;5001432;28;19920;-76
2023/07/03 05:51:36;;;;;;;;;;;16.20;99.90;;;;;;5022785;28;20292;-76
2023/07/03 05:54:06;;;;;;;;;;;16.30;99.90;;;;;;5038745;28;20008;-77
2023/07/03 05:56:35;;;;;;;;;;;16.30;99.90;;;;;;5001510;28;19917;-76
2023/07/03 05:59:03;;;;;;;;;;;16.40;99.90;;;;;;5001920;28;20245;-77
2023/07/03 06:01:33;;;;;;;;;;;16.50;99.90;;;;;;5002489;28;20000;-77
2023/07/03 06:04:00;;;;;;;;;;;16.60;99.90;;;;;;5023703;28;19949;-75
2023/07/03 06:06:32;;;;;;;;;;;16.70;99.90;;;;;;4999591;28;20027;-77
2023/07/03 06:09:03;;;;;;;;;;;16.70;99.90;;;;;;5005781;28;19948;-77
2023/07/03 06:11:32;;;;;;;;;;;16.70;99.90;;;;;;4999696;28;20000;-76
2023/07/03 06:14:02;;;;;;;;;;;16.70;99.90;;;;;;5022487;28;19913;-77
2023/07/03 06:16:34;;;;;;;;;;;16.70;99.90;;;;;;5022803;28;20608;-77
2023/07/03 06:19:02;;;;;;;;;;;16.70;99.90;;;;;;5022661;28;19920;-77
2023/07/03 06:21:37;;;;;;;;;;;16.70;99.90;;;;;;4999854;28;19917;-77
2023/07/03 06:24:07;;;;;;;;;;;16.70;99.90;;;;;;5020038;28;19916;-77
2023/07/03 06:26:33;;;;;;;;;;;16.80;99.90;;;;;;5038567;28;20012;-77
2023/07/03 06:29:06;;;;;;;;;;;16.80;99.90;;;;;;5004544;28;19928;-77
2023/07/03 06:31:35;;;;;;;;;;;16.90;99.90;;;;;;5023188;28;19913;-76
2023/07/03 06:34:10;;;;;;;;;;;16.90;99.90;;;;;;4998822;28;19928;-79
2023/07/03 06:36:46;;;;;;;;;;;16.80;99.90;;;;;;5023337;28;20079;-78
2023/07/03 06:39:15;;;;;;;;;;;16.80;99.90;;;;;;5021426;28;19959;-78
2023/07/03 06:41:46;;;;;;;;;;;16.70;99.90;;;;;;5038497;28;19970;-77
2023/07/03 06:44:20;;;;;;;;;;;16.80;99.90;;;;;;5023035;28;20254;-77
2023/07/03 06:46:49;;;;;;;;;;;16.80;99.90;;;;;;5022809;28;19925;-77
2023/07/03 06:49:22;;;;;;;;;;;16.80;99.90;;;;;;5023222;28;20078;-78
2023/07/03 06:51:48;;;;;;;;;;;17.00;99.90;;;;;;5022948;28;19928;-78
2023/07/03 06:54:16;;;;;;;;;;;17.10;99.90;;;;;;5038601;28;19913;-77
2023/07/03 06:56:42;;;;;;;;;;;17.20;99.90;;;;;;5000764;28;19921;-77
2023/07/03 06:59:10;;;;;;;;;;;17.20;99.90;;;;;;5001691;28;20396;-77
2023/07/03 07:01:37;;;;;;;;;;;17.30;99.90;;;;;;5020923;28;19921;-77
2023/07/03 07:04:12;;;;;;;;;;;17.30;99.90;;;;;;5021665;28;20027;-76
2023/07/03 07:06:38;;;;;;;;;;;17.50;99.90;;;;;;5037426;28;20973;-78
2023/07/03 07:09:04;;;;;;;;;;;17.50;99.90;;;;;;5022275;28;19948;-77
2023/07/03 07:11:30;;;;;;;;;;;17.50;99.90;;;;;;5005390;28;20066;-77
2023/07/03 07:13:59;;;;;;;;;;;17.50;99.90;;;;;;5020872;28;19916;-78
2023/07/03 07:16:35;;;;;;;;;;;17.50;99.90;;;;;;5023164;28;19913;-78
2023/07/03 07:19:02;;;;;;;;;;;17.50;99.90;;;;;;5021776;28;19952;-77
2023/07/03 07:21:33;;;;;;;;;;;17.50;99.90;;;;;;5022597;28;19915;-76
2023/07/03 07:24:02;;;;;;;;;;;17.50;99.90;;;;;;5022651;28;20357;-77
2023/07/03 07:26:30;;;;;;;;;;;17.50;99.90;;;;;;5002215;28;19921;-77
2023/07/03 07:28:56;;;;;;;;;;;17.50;99.90;;;;;;5004926;28;19927;-76
2023/07/03 07:31:25;;;;;;;;;;;17.40;99.90;;;;;;5031683;28;19984;-76
2023/07/03 07:33:51;;;;;;;;;;;17.40;99.90;;;;;;5035405;28;19913;-78
2023/07/03 07:36:19;;;;;;;;;;;17.40;99.90;;;;;;5036671;28;19978;-78
2023/07/03 07:38:45;;;;;;;;;;;17.40;99.90;;;;;;5035635;28;20254;-78
2023/07/03 07:41:11;;;;;;;;;;;17.60;99.90;;;;;;5015748;28;19909;-77
2023/07/03 07:43:38;;;;;;;;;;;17.70;99.90;;;;;;5002620;28;19970;-78
2023/07/03 07:46:06;;;;;;;;;;;17.80;99.90;;;;;;5000685;28;19924;-77
2023/07/03 07:48:33;;;;;;;;;;;17.90;99.90;;;;;;5021264;28;19917;-78
2023/07/03 07:50:59;;;;;;;;;;;17.90;99.90;;;;;;5022314;28;19921;-78
2023/07/03 07:53:26;;;;;;;;;;;18.00;99.90;;;;;;5002112;28;19963;-77
2023/07/03 07:55:51;;;;;;;;;;;18.10;99.90;;;;;;5020940;28;19924;-77
2023/07/03 07:58:17;;;;;;;;;;;18.20;99.90;;;;;;4999642;28;20544;-76
2023/07/03 08:00:43;;;;;;;;;;;18.40;99.90;;;;;;5000750;28;20084;-77
2023/07/03 08:03:09;;;;;;;;;;;18.50;99.90;;;;;;5021439;28;19913;-76
2023/07/03 08:05:35;;;;;;;;;;;18.50;99.90;;;;;;5005536;28;19924;-79
2023/07/03 08:08:01;;;;;;;;;;;18.60;99.90;;;;;;5036797;28;20331;-77
2023/07/03 08:10:27;;;;;;;;;;;18.50;99.90;;;;;;5021494;28;19938;-77
2023/07/03 08:12:52;;;;;;;;;;;18.60;99.90;;;;;;4999126;28;19909;-78
2023/07/03 08:15:18;;;;;;;;;;;18.60;99.90;;;;;;5021719;28;20045;-77
2023/07/03 08:17:45;;;;;;;;;;;18.60;99.90;;;;;;5000238;28;20002;-79
2023/07/03 08:20:12;;;;;;;;;;;18.80;99.90;;;;;;5021577;28;19909;-78
2023/07/03 08:22:40;;;;;;;;;;;18.80;99.90;;;;;;4998978;28;19968;-78
2023/07/03 08:25:10;;;;;;;;;;;18.80;99.90;;;;;;5035996;28;19923;-78
2023/07/03 08:27:36;;;;;;;;;;;19.00;99.90;;;;;;5037229;28;20009;-77
2023/07/03 08:30:06;;;;;;;;;;;19.10;99.90;;;;;;5018006;28;19917;-77
2023/07/03 08:32:40;;;;;;;;;;;19.20;99.90;;;;;;5022090;28;19960;-79
2023/07/03 08:35:11;;;;;;;;;;;19.30;99.90;;;;;;5002658;28;20935;-78
2023/07/03 08:37:37;;;;;;;;;;;19.20;99.90;;;;;;5020525;28;21042;-78
2023/07/03 08:40:05;;;;;;;;;;;19.30;99.90;;;;;;5000296;28;19913;-80
2023/07/03 08:42:49;;;;;;;;;;;19.40;99.90;;;;;;4997804;28;19913;-79
2023/07/03 08:45:20;;;;;;;;;;;19.40;99.90;;;;;;5036242;28;19916;-80
2023/07/03 08:47:49;;;;;;;;;;;19.40;99.90;;;;;;5021172;28;19925;-81
2023/07/03 08:50:22;;;;;;;;;;;19.40;99.90;;;;;;5021415;28;20011;-81
2023/07/03 08:52:52;;;;;;;;;;;19.50;99.90;;;;;;4999957;28;19928;-80
2023/07/03 08:55:23;;;;;;;;;;;19.60;99.90;;;;;;5000744;28;19913;-80
2023/07/03 08:57:50;;;;;;;;;;;19.70;99.90;;;;;;4999461;28;19909;-79
2023/07/03 09:00:16;;;;;;;;;;;19.90;99.90;;;;;;5034925;28;20012;-79
2023/07/03 09:03:05;;;;;;;;;;;19.80;99.90;;;;;;5034955;28;20004;-77
2023/07/03 09:05:48;;;;;;;;;;;19.70;99.90;;;;;;5019591;28;19917;-78
2023/07/03 09:08:19;;;;;;;;;;;19.90;99.90;;;;;;5036045;28;19920;-78
2023/07/03 09:10:50;;;;;;;;;;;20.10;99.90;;;;;;5021785;28;19948;-78
2023/07/03 09:13:31;;;;;;;;;;;20.30;99.90;;;;;;5019586;28;19984;-78
2023/07/03 09:16:16;;;;;;;;;;;20.40;99.90;;;;;;5020169;28;19913;-79
2023/07/03 09:18:49;;;;;;;;;;;20.40;99.90;;;;;;5020384;28;20280;-78
2023/07/03 09:21:21;;;;;;;;;;;20.50;99.90;;;;;;5034739;28;19913;-81
2023/07/03 09:23:54;;;;;;;;;;;20.60;99.90;;;;;;5020584;28;19916;-79
2023/07/03 09:26:24;;;;;;;;;;;20.40;99.90;;;;;;4998695;28;19925;-79
2023/07/03 09:28:58;;;;;;;;;;;20.20;99.90;;;;;;5015435;28;19913;-78
2023/07/03 09:31:28;;;;;;;;;;;20.00;99.90;;;;;;5034719;28;19987;-78
2023/07/03 09:33:54;;;;;;;;;;;19.80;99.90;;;;;;5003263;28;19909;-78
2023/07/03 09:36:25;;;;;;;;;;;19.50;99.90;;;;;;5021815;28;19913;-78
2023/07/03 09:38:52;;;;;;;;;;;19.30;99.90;;;;;;5020685;28;19996;-78
2023/07/03 09:41:25;;;;;;;;;;;19.20;99.90;;;;;;5020382;28;19913;-79
2023/07/03 09:43:53;;;;;;;;;;;19.20;99.90;;;;;;5020978;28;19913;-78
2023/07/03 09:46:24;;;;;;;;;;;19.20;99.90;;;;;;5020219;28;19943;-78
2023/07/03 09:48:50;;;;;;;;;;;19.20;99.90;;;;;;5021455;28;20365;-78
2023/07/03 09:51:24;;;;;;;;;;;19.30;99.90;;;;;;5019930;28;19931;-78
2023/07/03 09:53:52;;;;;;;;;;;19.40;99.90;;;;;;4999328;28;19917;-79
2023/07/03 09:56:21;;;;;;;;;;;19.70;99.90;;;;;;4999421;28;19923;-79
2023/07/03 09:58:54;;;;;;;;;;;20.10;99.90;;;;;;5019661;28;19935;-77
2023/07/03 10:01:26;;;;;;;;;;;20.20;99.90;;;;;;5021050;28;20016;-78
2023/07/03 10:04:00;;;;;;;;;;;20.10;99.90;;;;;;5018570;28;19917;-78
2023/07/03 10:06:29;;;;;;;;;;;20.00;99.90;;;;;;5024613;28;19921;-78
2023/07/03 10:08:58;;;;;;;;;;;19.70;99.90;;;;;;5035497;28;19966;-78
2023/07/03 10:11:40;;;;;;;;;;;19.50;99.90;;;;;;5002017;28;19909;-78
2023/07/03 10:14:08;;;;;;;;;;;19.10;99.90;;;;;;5018736;28;20165;-77
2023/07/03 10:16:35;;;;;;;;;;;18.70;99.90;;;;;;5000820;28;19957;-77
2023/07/03 10:19:10;;;;;;;;;;;18.40;99.90;;;;;;5022793;28;20331;-77
2023/07/03 10:21:36;;;;;;;;;;;18.40;99.90;;;;;;5037182;28;19921;-77
2023/07/03 10:24:11;;;;;;;;;;;18.50;99.90;;;;;;5023019;28;19996;-77
2023/07/03 10:26:42;;;;;;;;;;;18.60;99.90;;;;;;5024231;28;20347;-77
2023/07/03 10:29:20;;;;;;;;;;;18.80;99.90;;;;;;5020000;28;19983;-77
2023/07/03 10:31:58;;;;;;;;;;;19.00;99.90;;;;;;5009174;28;19952;-78
2023/07/03 10:34:26;;;;;;;;;;;19.20;99.90;;;;;;5003874;28;20296;-78
2023/07/03 10:36:59;;;;;;;;;;;19.70;99.90;;;;;;5022978;28;19919;-78
2023/07/03 10:39:37;;;;;;;;;;;20.50;99.40;;;;;;5001515;28;20377;-80
2023/07/03 10:42:09;;;;;;;;;;;21.00;98.50;;;;;;5023366;28;20460;-79
2023/07/03 10:44:38;;;;;;;;;;;20.90;98.20;;;;;;5038571;28;19948;-79
2023/07/03 10:47:23;;;;;;;;;;;20.70;98.40;;;;;;5001376;28;19987;-79
2023/07/03 10:49:48;;;;;;;;;;;20.60;98.70;;;;;;5038281;28;19932;-80
2023/07/03 10:52:20;;;;;;;;;;;20.40;98.90;;;;;;5005593;28;19964;-79
2023/07/03 10:55:01;;;;;;;;;;;20.30;98.50;;;;;;5005918;28;19921;-80
2023/07/03 10:57:35;;;;;;;;;;;20.20;98.50;;;;;;5023913;28;19912;-79
2023/07/03 11:00:07;;;;;;;;;;;20.20;98.80;;;;;;5023380;28;19916;-78
2023/07/03 11:02:53;;;;;;;;;;;20.30;97.90;;;;;;5023035;28;19913;-77
2023/07/03 11:05:25;;;;;;;;;;;20.80;97.40;;;;;;5002393;28;19948;-79
2023/07/03 11:08:07;;;;;;;;;;;21.30;96.70;;;;;;5001564;28;19943;-78
2023/07/03 11:10:58;;;;;;;;;;;21.20;96.40;;;;;;5021898;28;19993;-78
2023/07/03 11:13:31;;;;;;;;;;;21.00;96.60;;;;;;4997590;28;20382;-78
2023/07/03 11:16:00;;;;;;;;;;;20.70;96.70;;;;;;5000245;28;19916;-79
2023/07/03 11:18:48;;;;;;;;;;;20.60;97.00;;;;;;5022666;28;19925;-79
2023/07/03 11:21:29;;;;;;;;;;;20.50;97.20;;;;;;5037815;28;20459;-78
2023/07/03 11:24:16;;;;;;;;;;;20.50;97.30;;;;;;5022754;28;19917;-79
2023/07/03 11:27:15;;;;;;;;;;;20.60;97.00;;;;;;5022625;28;20377;-78
2023/07/03 11:29:41;;;;;;;;;;;20.60;96.10;;;;;;4999439;28;19925;-79
2023/07/03 11:32:07;;;;;;;;;;;20.60;95.90;;;;;;5001196;28;19976;-79
2023/07/03 11:34:33;;;;;;;;;;;20.70;95.60;;;;;;4999209;28;20286;-78
2023/07/03 11:36:59;;;;;;;;;;;20.80;95.60;;;;;;5022050;28;19916;-79
2023/07/03 11:39:29;;;;;;;;;;;21.50;95.30;;;;;;5022280;28;19913;-78
2023/07/03 11:42:11;;;;;;;;;;;22.30;94.80;;;;;;5022723;28;19952;-79
2023/07/03 11:44:48;;;;;;;;;;;22.90;94.20;;;;;;4999602;28;19924;-79
2023/07/03 11:47:28;;;;;;;;;;;23.10;93.70;;;;;;5021948;28;19936;-79
2023/07/03 11:49:57;;;;;;;;;;;23.10;93.90;;;;;;5020632;28;20007;-79
2023/07/03 11:52:45;;;;;;;;;;;23.00;93.50;;;;;;5002217;28;19920;-79
2023/07/03 11:55:20;;;;;;;;;;;23.00;93.70;;;;;;5000462;28;19921;-79
2023/07/03 11:57:50;;;;;;;;;;;23.60;93.30;;;;;;4999009;28;19917;-79
2023/07/03 12:00:34;;;;;;;;;;;23.60;92.50;;;;;;5021441;28;19916;-79
2023/07/03 12:03:07;;;;;;;;;;;23.00;92.90;;;;;;5022207;28;19913;-79
2023/07/03 12:05:51;;;;;;;;;;;22.50;93.30;;;;;;5020400;28;19933;-78
2023/07/03 12:08:46;;;;;;;;;;;22.10;93.90;;;;;;5000675;28;20006;-79
2023/07/03 12:11:26;;;;;;;;;;;21.70;94.20;;;;;;5010896;28;20018;-79
2023/07/03 12:13:53;;;;;;;;;;;21.20;94.70;;;;;;5019138;28;19909;-78
2023/07/03 12:16:22;;;;;;;;;;;20.80;95.10;;;;;;5037683;28;20012;-79
2023/07/03 12:18:58;;;;;;;;;;;20.60;95.50;;;;;;5019846;28;20078;-79
2023/07/03 12:21:46;;;;;;;;;;;20.90;95.70;;;;;;5002443;28;19917;-78
2023/07/03 12:24:30;;;;;;;;;;;22.30;95.60;;;;;;5021878;28;19909;-78
2023/07/03 12:27:00;;;;;;;;;;;23.50;94.80;;;;;;5035451;28;19980;-79
2023/07/03 12:29:36;;;;;;;;;;;23.70;94.00;;;;;;5022087;28;19966;-78
2023/07/03 12:32:08;;;;;;;;;;;23.70;93.30;;;;;;5018151;28;20361;-78
2023/07/03 12:34:35;;;;;;;;;;;23.30;93.20;;;;;;5022345;28;19920;-78
2023/07/03 12:37:03;;;;;;;;;;;23.30;93.40;;;;;;5021536;28;20368;-79
2023/07/03 12:39:30;;;;;;;;;;;24.00;93.30;;;;;;5017561;28;20333;-80
2023/07/03 12:42:10;;;;;;;;;;;24.80;92.30;;;;;;5022415;28;20020;-80
2023/07/03 12:44:40;;;;;;;;;;;25.00;90.90;;;;;;5016325;28;20012;-79
2023/07/03 12:47:13;;;;;;;;;;;25.10;90.60;;;;;;5022027;28;19955;-79
2023/07/03 12:49:55;;;;;;;;;;;24.90;89.70;;;;;;5022157;28;19967;-78
2023/07/03 12:52:23;;;;;;;;;;;24.70;88.00;;;;;;5019517;28;19917;-79
2023/07/03 12:54:49;;;;;;;;;;;24.70;87.30;;;;;;5021545;28;19924;-79
2023/07/03 12:57:15;;;;;;;;;;;25.00;86.30;;;;;;5021994;28;19916;-80
2023/07/03 13:00:00;;;;;;;;;;;25.40;84.00;;;;;;5036920;28;19917;-80
2023/07/03 13:02:26;;;;;;;;;;;25.30;84.00;;;;;;5036062;28;19950;-78
2023/07/03 13:04:54;;;;;;;;;;;24.70;84.60;;;;;;5000786;28;19909;-78
2023/07/03 13:07:21;;;;;;;;;;;24.30;83.50;;;;;;5020803;28;20537;-77
2023/07/03 13:09:48;;;;;;;;;;;24.40;83.10;;;;;;4999050;28;19955;-77
2023/07/03 13:12:23;;;;;;;;;;;24.40;83.70;;;;;;5020434;28;19992;-78
2023/07/03 13:14:59;;;;;;;;;;;24.10;82.60;;;;;;4999147;28;19940;-77
2023/07/03 13:17:29;;;;;;;;;;;23.60;83.80;;;;;;5002263;28;19948;-77
2023/07/03 13:20:13;;;;;;;;;;;23.10;84.80;;;;;;5018785;28;19951;-78
2023/07/03 13:22:51;;;;;;;;;;;22.90;85.40;;;;;;5021210;28;19917;-79
2023/07/03 13:25:26;;;;;;;;;;;23.10;85.80;;;;;;5017190;28;19921;-78
2023/07/03 13:27:52;;;;;;;;;;;23.10;84.20;;;;;;5001915;28;19913;-78
2023/07/03 13:30:19;;;;;;;;;;;22.90;84.40;;;;;;5035069;28;19925;-78
2023/07/03 13:32:51;;;;;;;;;;;23.20;85.10;;;;;;5017606;28;19920;-77
2023/07/03 13:35:25;;;;;;;;;;;23.50;84.70;;;;;;5019285;28;19960;-81
2023/07/03 13:37:51;;;;;;;;;;;24.00;84.40;;;;;;5021388;28;19909;-79
2023/07/03 13:40:17;;;;;;;;;;;24.10;84.00;;;;;;5001761;28;19924;-78
2023/07/03 13:42:43;;;;;;;;;;;23.80;83.50;;;;;;5023277;28;19913;-78
2023/07/03 13:45:15;;;;;;;;;;;23.30;84.10;;;;;;5001278;28;19913;-79
2023/07/03 13:47:41;;;;;;;;;;;23.00;85.20;;;;;;5024865;28;19917;-78
2023/07/03 13:50:10;;;;;;;;;;;22.80;85.70;;;;;;5020763;28;19924;-78
2023/07/03 13:52:41;;;;;;;;;;;22.70;85.20;;;;;;5024625;28;20646;-79
2023/07/03 13:55:07;;;;;;;;;;;22.70;84.90;;;;;;5024057;28;20451;-78
2023/07/03 13:57:33;;;;;;;;;;;22.70;85.00;;;;;;5003013;28;19913;-79
2023/07/03 14:00:16;;;;;;;;;;;22.70;84.60;;;;;;5000469;28;19913;-80
2023/07/03 14:02:43;;;;;;;;;;;22.80;83.30;;;;;;5024814;28;19921;-78
2023/07/03 14:05:09;;;;;;;;;;;23.00;82.30;;;;;;5000727;28;20373;-79
2023/07/03 14:07:34;;;;;;;;;;;23.10;81.00;;;;;;5001656;28;19917;-79
2023/07/03 14:10:02;;;;;;;;;;;23.00;81.10;;;;;;5020817;28;19965;-78
2023/07/03 14:12:27;;;;;;;;;;;22.90;81.50;;;;;;5005940;28;19968;-79
2023/07/03 14:14:53;;;;;;;;;;;22.90;82.20;;;;;;5039155;28;19921;-80
2023/07/03 14:17:19;;;;;;;;;;;23.30;82.80;;;;;;5022851;28;20540;-79
2023/07/03 14:19:47;;;;;;;;;;;24.00;83.10;;;;;;4999468;28;19917;-79
2023/07/03 14:22:14;;;;;;;;;;;24.60;83.20;;;;;;5006160;28;20280;-78
2023/07/03 14:24:44;;;;;;;;;;;25.00;83.30;;;;;;5003752;28;20040;-80
2023/07/03 14:27:10;;;;;;;;;;;25.10;82.10;;;;;;5023254;28;19921;-80
2023/07/03 14:29:36;;;;;;;;;;;25.20;82.20;;;;;;5021973;28;19967;-78
2023/07/03 14:32:03;;;;;;;;;;;25.00;82.70;;;;;;5022796;28;20289;-79
2023/07/03 14:34:32;;;;;;;;;;;24.60;83.50;;;;;;5023635;28;19908;-78